sensor_id;sensor_type;location;lat;lon;timestamp;P1;durP1;ratioP1;P2;durP2;ratioP2
47758;SDS011;33520;55.122;35.582;2023-06-14T00:01:01;2.58;;;1.50;;
47758;SDS011;33520;55.122;35.582;2023-06-14T00:03:28;3.33;;;1.75;;
47758;SDS011;33520;55.122;35.582;2023-06-14T00:05:57;3.35;;;1.60;;
47758;SDS011;33520;55.122;35.582;2023-06-14T00:08:23;3.92;;;2.38;;
47758;SDS011;33520;55.122;35.582;2023-06-14T00:10:51;3.58;;;2.00;;
47758;SDS011;33520;55.122;35.582;2023-06-14T00:13:17;6.63;;;2.10;;
47758;SDS011;33520;55.122;35.582;2023-06-14T00:15:44;4.72;;;2.50;;
47758;SDS011;33520;55.122;35.582;2023-06-14T00:18:12;3.13;;;1.83;;
47758;SDS011;33520;55.122;35.582;2023-06-14T00:20:38;2.65;;;1.63;;
47758;SDS011;33520;55.122;35.582;2023-06-14T00:23:07;2.63;;;1.60;;
47758;SDS011;33520;55.122;35.582;2023-06-14T00:25:33;3.38;;;2.08;;
47758;SDS011;33520;55.122;35.582;2023-06-14T00:28:00;3.20;;;1.85;;
47758;SDS011;33520;55.122;35.582;2023-06-14T00:30:27;2.80;;;1.92;;
47758;SDS011;33520;55.122;35.582;2023-06-14T00:32:56;3.15;;;1.67;;
47758;SDS011;33520;55.122;35.582;2023-06-14T00:35:25;2.70;;;1.52;;
47758;SDS011;33520;55.122;35.582;2023-06-14T00:40:17;3.95;;;1.75;;
47758;SDS011;33520;55.122;35.582;2023-06-14T00:42:44;3.05;;;1.65;;
47758;SDS011;33520;55.122;35.582;2023-06-14T00:45:11;5.18;;;1.77;;
47758;SDS011;33520;55.122;35.582;2023-06-14T00:47:38;4.63;;;1.85;;
47758;SDS011;33520;55.122;35.582;2023-06-14T00:50:09;3.47;;;1.55;;
47758;SDS011;33520;55.122;35.582;2023-06-14T00:52:35;2.85;;;1.63;;
47758;SDS011;33520;55.122;35.582;2023-06-14T00:57:29;3.70;;;1.70;;
47758;SDS011;33520;55.122;35.582;2023-06-14T01:02:22;4.95;;;1.90;;
47758;SDS011;33520;55.122;35.582;2023-06-14T01:04:50;2.65;;;1.25;;
47758;SDS011;33520;55.122;35.582;2023-06-14T01:07:23;5.10;;;1.92;;
47758;SDS011;33520;55.122;35.582;2023-06-14T01:15:33;3.60;;;1.92;;
47758;SDS011;33520;55.122;35.582;2023-06-14T01:18:00;3.10;;;1.90;;
47758;SDS011;33520;55.122;35.582;2023-06-14T01:20:29;4.18;;;2.17;;
47758;SDS011;33520;55.122;35.582;2023-06-14T01:22:57;3.60;;;1.85;;
47758;SDS011;33520;55.122;35.582;2023-06-14T01:25:24;3.25;;;2.00;;
47758;SDS011;33520;55.122;35.582;2023-06-14T01:27:53;3.15;;;1.77;;
47758;SDS011;33520;55.122;35.582;2023-06-14T01:30:20;4.03;;;1.80;;
47758;SDS011;33520;55.122;35.582;2023-06-14T01:32:47;3.70;;;2.00;;
47758;SDS011;33520;55.122;35.582;2023-06-14T01:35:16;4.20;;;2.35;;
47758;SDS011;33520;55.122;35.582;2023-06-14T01:40:09;4.70;;;2.40;;
47758;SDS011;33520;55.122;35.582;2023-06-14T01:42:36;3.78;;;2.08;;
47758;SDS011;33520;55.122;35.582;2023-06-14T01:45:04;4.85;;;2.20;;
47758;SDS011;33520;55.122;35.582;2023-06-14T01:47:31;4.10;;;2.10;;
47758;SDS011;33520;55.122;35.582;2023-06-14T01:49:58;3.03;;;1.60;;
47758;SDS011;33520;55.122;35.582;2023-06-14T01:54:51;4.05;;;2.33;;
47758;SDS011;33520;55.122;35.582;2023-06-14T01:57:17;4.25;;;2.05;;
47758;SDS011;33520;55.122;35.582;2023-06-14T01:59:43;6.25;;;2.30;;
47758;SDS011;33520;55.122;35.582;2023-06-14T02:02:14;3.83;;;1.98;;
47758;SDS011;33520;55.122;35.582;2023-06-14T02:04:41;3.17;;;1.88;;
47758;SDS011;33520;55.122;35.582;2023-06-14T02:07:08;4.30;;;2.17;;
47758;SDS011;33520;55.122;35.582;2023-06-14T02:09:34;3.85;;;2.13;;
47758;SDS011;33520;55.122;35.582;2023-06-14T02:12:01;3.28;;;1.90;;
47758;SDS011;33520;55.122;35.582;2023-06-14T02:14:29;4.03;;;2.17;;
47758;SDS011;33520;55.122;35.582;2023-06-14T02:16:55;4.50;;;1.88;;
47758;SDS011;33520;55.122;35.582;2023-06-14T02:19:21;3.47;;;2.42;;
47758;SDS011;33520;55.122;35.582;2023-06-14T02:21:47;3.33;;;1.95;;
47758;SDS011;33520;55.122;35.582;2023-06-14T02:24:14;4.03;;;2.15;;
47758;SDS011;33520;55.122;35.582;2023-06-14T02:26:40;2.58;;;1.80;;
47758;SDS011;33520;55.122;35.582;2023-06-14T02:29:07;3.60;;;2.00;;
47758;SDS011;33520;55.122;35.582;2023-06-14T02:31:38;3.15;;;1.90;;
47758;SDS011;33520;55.122;35.582;2023-06-14T02:36:30;3.95;;;1.98;;
47758;SDS011;33520;55.122;35.582;2023-06-14T02:38:59;3.50;;;1.92;;
47758;SDS011;33520;55.122;35.582;2023-06-14T02:41:26;3.17;;;1.90;;
47758;SDS011;33520;55.122;35.582;2023-06-14T02:43:53;2.88;;;1.92;;
47758;SDS011;33520;55.122;35.582;2023-06-14T02:46:19;2.22;;;1.80;;
47758;SDS011;33520;55.122;35.582;2023-06-14T02:48:48;3.47;;;2.08;;
47758;SDS011;33520;55.122;35.582;2023-06-14T02:51:14;4.50;;;2.08;;
47758;SDS011;33520;55.122;35.582;2023-06-14T02:53:40;4.05;;;2.10;;
47758;SDS011;33520;55.122;35.582;2023-06-14T02:56:06;2.38;;;1.67;;
47758;SDS011;33520;55.122;35.582;2023-06-14T03:00:59;3.35;;;1.90;;
47758;SDS011;33520;55.122;35.582;2023-06-14T03:03:30;2.63;;;1.65;;
47758;SDS011;33520;55.122;35.582;2023-06-14T03:05:56;3.33;;;1.75;;
47758;SDS011;33520;55.122;35.582;2023-06-14T03:08:27;5.57;;;1.92;;
47758;SDS011;33520;55.122;35.582;2023-06-14T03:10:58;3.85;;;1.55;;
47758;SDS011;33520;55.122;35.582;2023-06-14T03:13:25;2.40;;;1.77;;
47758;SDS011;33520;55.122;35.582;2023-06-14T03:15:53;3.05;;;1.80;;
47758;SDS011;33520;55.122;35.582;2023-06-14T03:18:22;2.78;;;1.92;;
47758;SDS011;33520;55.122;35.582;2023-06-14T03:20:51;2.53;;;1.45;;
47758;SDS011;33520;55.122;35.582;2023-06-14T03:23:18;2.97;;;1.90;;
47758;SDS011;33520;55.122;35.582;2023-06-14T03:25:44;3.78;;;1.95;;
47758;SDS011;33520;55.122;35.582;2023-06-14T03:28:13;3.67;;;1.55;;
47758;SDS011;33520;55.122;35.582;2023-06-14T03:30:39;2.75;;;1.75;;
47758;SDS011;33520;55.122;35.582;2023-06-14T03:33:06;3.28;;;1.70;;
47758;SDS011;33520;55.122;35.582;2023-06-14T03:35:36;2.92;;;1.80;;
47758;SDS011;33520;55.122;35.582;2023-06-14T03:38:03;2.65;;;1.80;;
47758;SDS011;33520;55.122;35.582;2023-06-14T03:40:30;3.15;;;1.95;;
47758;SDS011;33520;55.122;35.582;2023-06-14T03:43:01;2.35;;;1.75;;
47758;SDS011;33520;55.122;35.582;2023-06-14T03:45:28;4.40;;;1.88;;
47758;SDS011;33520;55.122;35.582;2023-06-14T03:47:55;3.60;;;2.13;;
47758;SDS011;33520;55.122;35.582;2023-06-14T03:50:23;5.38;;;2.30;;
47758;SDS011;33520;55.122;35.582;2023-06-14T03:52:50;2.83;;;1.70;;
47758;SDS011;33520;55.122;35.582;2023-06-14T03:55:17;3.83;;;2.40;;
47758;SDS011;33520;55.122;35.582;2023-06-14T03:57:44;6.05;;;2.63;;
47758;SDS011;33520;55.122;35.582;2023-06-14T04:00:15;2.92;;;2.17;;
47758;SDS011;33520;55.122;35.582;2023-06-14T04:02:42;3.45;;;1.85;;
47758;SDS011;33520;55.122;35.582;2023-06-14T04:05:10;3.15;;;2.13;;
47758;SDS011;33520;55.122;35.582;2023-06-14T04:07:40;3.08;;;2.25;;
47758;SDS011;33520;55.122;35.582;2023-06-14T04:10:12;6.97;;;2.30;;
47758;SDS011;33520;55.122;35.582;2023-06-14T04:12:39;2.47;;;1.60;;
47758;SDS011;33520;55.122;35.582;2023-06-14T04:15:05;2.08;;;1.60;;
47758;SDS011;33520;55.122;35.582;2023-06-14T04:17:34;2.70;;;1.98;;
47758;SDS011;33520;55.122;35.582;2023-06-14T04:20:02;4.93;;;2.28;;
47758;SDS011;33520;55.122;35.582;2023-06-14T04:22:31;3.72;;;2.00;;
47758;SDS011;33520;55.122;35.582;2023-06-14T04:24:59;4.07;;;1.90;;
47758;SDS011;33520;55.122;35.582;2023-06-14T04:27:26;2.60;;;1.60;;
47758;SDS011;33520;55.122;35.582;2023-06-14T04:29:54;2.70;;;1.58;;
47758;SDS011;33520;55.122;35.582;2023-06-14T04:32:33;3.03;;;2.00;;
47758;SDS011;33520;55.122;35.582;2023-06-14T04:35:05;3.40;;;1.80;;
47758;SDS011;33520;55.122;35.582;2023-06-14T04:37:37;3.30;;;1.92;;
47758;SDS011;33520;55.122;35.582;2023-06-14T04:40:06;2.70;;;1.70;;
47758;SDS011;33520;55.122;35.582;2023-06-14T04:42:34;4.15;;;2.20;;
47758;SDS011;33520;55.122;35.582;2023-06-14T04:45:04;2.88;;;1.67;;
47758;SDS011;33520;55.122;35.582;2023-06-14T04:47:33;3.33;;;1.70;;
47758;SDS011;33520;55.122;35.582;2023-06-14T04:50:00;2.28;;;1.38;;
47758;SDS011;33520;55.122;35.582;2023-06-14T04:52:30;1.70;;;1.40;;
47758;SDS011;33520;55.122;35.582;2023-06-14T04:54:57;3.15;;;1.52;;
47758;SDS011;33520;55.122;35.582;2023-06-14T04:57:25;2.38;;;1.45;;
47758;SDS011;33520;55.122;35.582;2023-06-14T04:59:55;2.80;;;1.58;;
47758;SDS011;33520;55.122;35.582;2023-06-14T05:02:25;3.92;;;1.50;;
47758;SDS011;33520;55.122;35.582;2023-06-14T05:04:53;2.15;;;1.33;;
47758;SDS011;33520;55.122;35.582;2023-06-14T05:07:20;1.92;;;1.33;;
47758;SDS011;33520;55.122;35.582;2023-06-14T05:09:50;2.42;;;1.42;;
47758;SDS011;33520;55.122;35.582;2023-06-14T05:12:17;3.03;;;1.33;;
47758;SDS011;33520;55.122;35.582;2023-06-14T05:14:44;1.67;;;1.30;;
47758;SDS011;33520;55.122;35.582;2023-06-14T05:17:11;3.50;;;1.50;;
47758;SDS011;33520;55.122;35.582;2023-06-14T05:19:38;1.50;;;1.10;;
47758;SDS011;33520;55.122;35.582;2023-06-14T05:22:04;2.00;;;1.27;;
47758;SDS011;33520;55.122;35.582;2023-06-14T05:24:30;2.22;;;1.17;;
47758;SDS011;33520;55.122;35.582;2023-06-14T05:26:57;1.65;;;1.13;;
47758;SDS011;33520;55.122;35.582;2023-06-14T05:29:24;1.70;;;1.17;;
47758;SDS011;33520;55.122;35.582;2023-06-14T05:31:51;1.92;;;1.23;;
47758;SDS011;33520;55.122;35.582;2023-06-14T05:34:18;2.28;;;1.27;;
47758;SDS011;33520;55.122;35.582;2023-06-14T05:36:44;1.10;;;0.80;;
47758;SDS011;33520;55.122;35.582;2023-06-14T05:39:11;1.75;;;1.30;;
47758;SDS011;33520;55.122;35.582;2023-06-14T05:41:37;2.17;;;1.27;;
47758;SDS011;33520;55.122;35.582;2023-06-14T05:44:03;1.95;;;1.13;;
47758;SDS011;33520;55.122;35.582;2023-06-14T05:46:30;1.75;;;1.05;;
47758;SDS011;33520;55.122;35.582;2023-06-14T05:48:57;1.73;;;1.20;;
47758;SDS011;33520;55.122;35.582;2023-06-14T05:51:23;1.67;;;0.93;;
47758;SDS011;33520;55.122;35.582;2023-06-14T05:53:52;2.15;;;0.90;;
47758;SDS011;33520;55.122;35.582;2023-06-14T05:56:20;1.85;;;1.10;;
47758;SDS011;33520;55.122;35.582;2023-06-14T05:58:46;2.33;;;1.20;;
47758;SDS011;33520;55.122;35.582;2023-06-14T06:01:14;1.20;;;0.85;;
47758;SDS011;33520;55.122;35.582;2023-06-14T06:03:41;1.90;;;1.17;;
47758;SDS011;33520;55.122;35.582;2023-06-14T06:06:12;2.83;;;1.10;;
47758;SDS011;33520;55.122;35.582;2023-06-14T06:08:38;1.33;;;0.90;;
47758;SDS011;33520;55.122;35.582;2023-06-14T06:11:06;2.33;;;1.10;;
47758;SDS011;33520;55.122;35.582;2023-06-14T06:13:33;1.95;;;1.05;;
47758;SDS011;33520;55.122;35.582;2023-06-14T06:16:02;1.38;;;1.00;;
47758;SDS011;33520;55.122;35.582;2023-06-14T06:18:29;1.55;;;1.00;;
47758;SDS011;33520;55.122;35.582;2023-06-14T06:20:56;1.88;;;1.30;;
47758;SDS011;33520;55.122;35.582;2023-06-14T06:23:23;1.98;;;1.20;;
47758;SDS011;33520;55.122;35.582;2023-06-14T06:25:50;3.35;;;1.40;;
47758;SDS011;33520;55.122;35.582;2023-06-14T06:28:17;2.17;;;1.38;;
47758;SDS011;33520;55.122;35.582;2023-06-14T06:30:43;3.85;;;1.05;;
47758;SDS011;33520;55.122;35.582;2023-06-14T06:33:10;2.10;;;1.10;;
47758;SDS011;33520;55.122;35.582;2023-06-14T06:35:36;1.25;;;1.02;;
47758;SDS011;33520;55.122;35.582;2023-06-14T06:38:03;2.15;;;1.40;;
47758;SDS011;33520;55.122;35.582;2023-06-14T06:40:29;2.50;;;1.40;;
47758;SDS011;33520;55.122;35.582;2023-06-14T06:42:55;2.60;;;1.42;;
47758;SDS011;33520;55.122;35.582;2023-06-14T06:45:26;1.30;;;1.20;;
47758;SDS011;33520;55.122;35.582;2023-06-14T06:47:52;2.70;;;1.30;;
47758;SDS011;33520;55.122;35.582;2023-06-14T06:50:19;2.80;;;1.50;;
47758;SDS011;33520;55.122;35.582;2023-06-14T06:52:46;1.80;;;1.27;;
47758;SDS011;33520;55.122;35.582;2023-06-14T06:55:12;2.33;;;1.33;;
47758;SDS011;33520;55.122;35.582;2023-06-14T06:57:39;2.53;;;1.50;;
47758;SDS011;33520;55.122;35.582;2023-06-14T07:00:06;5.03;;;1.20;;
47758;SDS011;33520;55.122;35.582;2023-06-14T07:02:36;1.98;;;1.27;;
47758;SDS011;33520;55.122;35.582;2023-06-14T07:05:02;2.35;;;1.67;;
47758;SDS011;33520;55.122;35.582;2023-06-14T07:07:30;2.30;;;1.52;;
47758;SDS011;33520;55.122;35.582;2023-06-14T07:09:56;2.35;;;1.15;;
47758;SDS011;33520;55.122;35.582;2023-06-14T07:12:26;3.53;;;1.38;;
47758;SDS011;33520;55.122;35.582;2023-06-14T07:14:53;2.17;;;1.30;;
47758;SDS011;33520;55.122;35.582;2023-06-14T07:17:19;3.72;;;1.58;;
47758;SDS011;33520;55.122;35.582;2023-06-14T07:19:45;3.15;;;1.65;;
47758;SDS011;33520;55.122;35.582;2023-06-14T07:22:14;3.22;;;1.80;;
47758;SDS011;33520;55.122;35.582;2023-06-14T07:24:40;2.53;;;1.20;;
47758;SDS011;33520;55.122;35.582;2023-06-14T07:27:07;2.30;;;1.30;;
47758;SDS011;33520;55.122;35.582;2023-06-14T07:29:34;4.47;;;1.60;;
47758;SDS011;33520;55.122;35.582;2023-06-14T07:32:00;1.98;;;1.30;;
47758;SDS011;33520;55.122;35.582;2023-06-14T07:34:27;1.90;;;1.38;;
47758;SDS011;33520;55.122;35.582;2023-06-14T07:36:53;4.97;;;1.50;;
47758;SDS011;33520;55.122;35.582;2023-06-14T07:39:20;3.08;;;1.30;;
47758;SDS011;33520;55.122;35.582;2023-06-14T07:41:46;13.88;;;1.85;;
47758;SDS011;33520;55.122;35.582;2023-06-14T07:44:12;5.15;;;1.40;;
47758;SDS011;33520;55.122;35.582;2023-06-14T07:46:39;2.55;;;1.50;;
47758;SDS011;33520;55.122;35.582;2023-06-14T07:49:06;2.13;;;1.27;;
47758;SDS011;33520;55.122;35.582;2023-06-14T07:51:32;3.17;;;1.33;;
47758;SDS011;33520;55.122;35.582;2023-06-14T07:53:59;3.45;;;1.55;;
47758;SDS011;33520;55.122;35.582;2023-06-14T07:56:29;2.47;;;1.67;;
47758;SDS011;33520;55.122;35.582;2023-06-14T07:58:55;2.80;;;1.60;;
47758;SDS011;33520;55.122;35.582;2023-06-14T08:01:22;4.00;;;1.38;;
47758;SDS011;33520;55.122;35.582;2023-06-14T08:03:51;3.63;;;1.50;;
47758;SDS011;33520;55.122;35.582;2023-06-14T08:06:17;2.22;;;1.55;;
47758;SDS011;33520;55.122;35.582;2023-06-14T08:08:43;3.47;;;1.48;;
47758;SDS011;33520;55.122;35.582;2023-06-14T08:11:09;1.90;;;1.50;;
47758;SDS011;33520;55.122;35.582;2023-06-14T08:13:36;2.13;;;1.50;;
47758;SDS011;33520;55.122;35.582;2023-06-14T08:16:02;3.22;;;1.40;;
47758;SDS011;33520;55.122;35.582;2023-06-14T08:18:30;3.38;;;1.85;;
47758;SDS011;33520;55.122;35.582;2023-06-14T08:20:56;2.42;;;1.30;;
47758;SDS011;33520;55.122;35.582;2023-06-14T08:23:23;3.00;;;1.55;;
47758;SDS011;33520;55.122;35.582;2023-06-14T08:25:49;2.03;;;1.52;;
47758;SDS011;33520;55.122;35.582;2023-06-14T08:28:15;1.95;;;1.40;;
47758;SDS011;33520;55.122;35.582;2023-06-14T08:30:42;2.13;;;1.55;;
47758;SDS011;33520;55.122;35.582;2023-06-14T08:33:08;3.40;;;1.50;;
47758;SDS011;33520;55.122;35.582;2023-06-14T08:35:34;2.22;;;1.35;;
47758;SDS011;33520;55.122;35.582;2023-06-14T08:38:05;2.30;;;1.60;;
47758;SDS011;33520;55.122;35.582;2023-06-14T08:40:31;4.85;;;1.38;;
47758;SDS011;33520;55.122;35.582;2023-06-14T08:43:02;2.90;;;1.73;;
47758;SDS011;33520;55.122;35.582;2023-06-14T08:45:28;2.03;;;1.13;;
47758;SDS011;33520;55.122;35.582;2023-06-14T08:47:55;2.88;;;1.50;;
47758;SDS011;33520;55.122;35.582;2023-06-14T08:50:25;2.30;;;1.50;;
47758;SDS011;33520;55.122;35.582;2023-06-14T08:52:57;2.13;;;1.50;;
47758;SDS011;33520;55.122;35.582;2023-06-14T08:55:29;2.70;;;1.75;;
47758;SDS011;33520;55.122;35.582;2023-06-14T08:57:57;3.00;;;1.48;;
47758;SDS011;33520;55.122;35.582;2023-06-14T09:00:24;2.35;;;1.48;;
47758;SDS011;33520;55.122;35.582;2023-06-14T09:02:52;4.55;;;1.65;;
47758;SDS011;33520;55.122;35.582;2023-06-14T09:05:23;3.30;;;1.98;;
47758;SDS011;33520;55.122;35.582;2023-06-14T09:07:53;3.20;;;1.65;;
47758;SDS011;33520;55.122;35.582;2023-06-14T09:10:20;2.95;;;1.80;;
47758;SDS011;33520;55.122;35.582;2023-06-14T09:12:47;2.10;;;1.52;;
47758;SDS011;33520;55.122;35.582;2023-06-14T09:15:14;2.75;;;1.67;;
47758;SDS011;33520;55.122;35.582;2023-06-14T09:17:40;2.03;;;1.63;;
47758;SDS011;33520;55.122;35.582;2023-06-14T09:20:07;3.25;;;1.38;;
47758;SDS011;33520;55.122;35.582;2023-06-14T09:22:43;2.45;;;1.45;;
47758;SDS011;33520;55.122;35.582;2023-06-14T09:25:10;2.40;;;1.60;;
47758;SDS011;33520;55.122;35.582;2023-06-14T09:27:38;3.38;;;1.85;;
47758;SDS011;33520;55.122;35.582;2023-06-14T09:30:05;2.53;;;2.00;;
47758;SDS011;33520;55.122;35.582;2023-06-14T09:32:38;3.40;;;1.95;;
47758;SDS011;33520;55.122;35.582;2023-06-14T09:35:08;1.90;;;1.65;;
47758;SDS011;33520;55.122;35.582;2023-06-14T09:37:35;3.40;;;1.83;;
47758;SDS011;33520;55.122;35.582;2023-06-14T09:40:04;2.25;;;1.60;;
47758;SDS011;33520;55.122;35.582;2023-06-14T09:42:31;2.40;;;1.50;;
47758;SDS011;33520;55.122;35.582;2023-06-14T09:44:57;2.70;;;1.60;;
47758;SDS011;33520;55.122;35.582;2023-06-14T09:47:24;3.08;;;1.90;;
47758;SDS011;33520;55.122;35.582;2023-06-14T09:49:51;4.20;;;1.65;;
47758;SDS011;33520;55.122;35.582;2023-06-14T09:52:20;2.25;;;1.40;;
47758;SDS011;33520;55.122;35.582;2023-06-14T09:54:48;2.45;;;1.60;;
47758;SDS011;33520;55.122;35.582;2023-06-14T09:57:22;2.63;;;1.80;;
47758;SDS011;33520;55.122;35.582;2023-06-14T09:59:50;3.03;;;1.63;;
47758;SDS011;33520;55.122;35.582;2023-06-14T10:02:24;2.33;;;1.55;;
47758;SDS011;33520;55.122;35.582;2023-06-14T10:05:07;3.75;;;1.98;;
47758;SDS011;33520;55.122;35.582;2023-06-14T10:10:19;3.17;;;2.00;;
47758;SDS011;33520;55.122;35.582;2023-06-14T10:12:46;2.22;;;1.63;;
47758;SDS011;33520;55.122;35.582;2023-06-14T10:23:27;3.67;;;2.33;;
47758;SDS011;33520;55.122;35.582;2023-06-14T10:25:56;2.75;;;1.70;;
47758;SDS011;33520;55.122;35.582;2023-06-14T10:28:23;4.00;;;1.90;;
47758;SDS011;33520;55.122;35.582;2023-06-14T10:31:04;2.80;;;1.88;;
47758;SDS011;33520;55.122;35.582;2023-06-14T10:33:32;3.95;;;2.13;;
47758;SDS011;33520;55.122;35.582;2023-06-14T10:36:42;4.25;;;2.08;;
47758;SDS011;33520;55.122;35.582;2023-06-14T10:38:59;4.60;;;2.20;;
47758;SDS011;33520;55.122;35.582;2023-06-14T10:41:50;3.80;;;1.77;;
47758;SDS011;33520;55.122;35.582;2023-06-14T10:46:47;2.97;;;1.80;;
47758;SDS011;33520;55.122;35.582;2023-06-14T10:49:36;3.50;;;1.60;;
47758;SDS011;33520;55.122;35.582;2023-06-14T10:52:08;2.67;;;1.75;;
47758;SDS011;33520;55.122;35.582;2023-06-14T10:54:55;3.92;;;2.15;;
47758;SDS011;33520;55.122;35.582;2023-06-14T10:57:25;3.30;;;2.20;;
47758;SDS011;33520;55.122;35.582;2023-06-14T10:59:53;3.97;;;2.17;;
47758;SDS011;33520;55.122;35.582;2023-06-14T11:02:44;4.20;;;2.25;;
47758;SDS011;33520;55.122;35.582;2023-06-14T11:05:20;4.03;;;1.80;;
47758;SDS011;33520;55.122;35.582;2023-06-14T11:10:43;2.97;;;1.85;;
47758;SDS011;33520;55.122;35.582;2023-06-14T11:13:12;4.05;;;2.13;;
47758;SDS011;33520;55.122;35.582;2023-06-14T11:15:45;4.38;;;2.42;;
47758;SDS011;33520;55.122;35.582;2023-06-14T11:18:14;2.30;;;1.70;;
47758;SDS011;33520;55.122;35.582;2023-06-14T11:20:42;3.20;;;1.58;;
47758;SDS011;33520;55.122;35.582;2023-06-14T11:23:08;3.38;;;2.15;;
47758;SDS011;33520;55.122;35.582;2023-06-14T11:25:35;2.88;;;1.80;;
47758;SDS011;33520;55.122;35.582;2023-06-14T11:28:01;3.53;;;1.95;;
47758;SDS011;33520;55.122;35.582;2023-06-14T11:30:28;5.88;;;1.77;;
47758;SDS011;33520;55.122;35.582;2023-06-14T11:32:54;2.70;;;2.05;;
47758;SDS011;33520;55.122;35.582;2023-06-14T11:35:21;3.28;;;2.00;;
47758;SDS011;33520;55.122;35.582;2023-06-14T11:37:55;3.88;;;1.90;;
47758;SDS011;33520;55.122;35.582;2023-06-14T11:40:25;3.88;;;2.20;;
47758;SDS011;33520;55.122;35.582;2023-06-14T11:42:59;3.13;;;1.98;;
47758;SDS011;33520;55.122;35.582;2023-06-14T11:45:27;2.63;;;1.83;;
47758;SDS011;33520;55.122;35.582;2023-06-14T12:21:26;3.00;;;2.03;;
47758;SDS011;33520;55.122;35.582;2023-06-14T12:23:54;2.67;;;1.70;;
47758;SDS011;33520;55.122;35.582;2023-06-14T12:26:21;2.33;;;1.67;;
47758;SDS011;33520;55.122;35.582;2023-06-14T12:28:47;2.63;;;1.85;;
47758;SDS011;33520;55.122;35.582;2023-06-14T12:31:15;4.65;;;2.03;;
47758;SDS011;33520;55.122;35.582;2023-06-14T12:33:42;3.33;;;1.90;;
47758;SDS011;33520;55.122;35.582;2023-06-14T12:36:09;4.10;;;2.10;;
47758;SDS011;33520;55.122;35.582;2023-06-14T12:38:36;2.78;;;1.90;;
47758;SDS011;33520;55.122;35.582;2023-06-14T12:41:03;4.63;;;2.20;;
47758;SDS011;33520;55.122;35.582;2023-06-14T12:43:30;3.22;;;2.17;;
47758;SDS011;33520;55.122;35.582;2023-06-14T12:45:56;4.13;;;1.90;;
47758;SDS011;33520;55.122;35.582;2023-06-14T12:48:23;5.43;;;2.25;;
47758;SDS011;33520;55.122;35.582;2023-06-14T12:50:49;3.83;;;1.88;;
47758;SDS011;33520;55.122;35.582;2023-06-14T12:53:15;3.75;;;2.20;;
47758;SDS011;33520;55.122;35.582;2023-06-14T12:55:42;5.90;;;2.47;;
47758;SDS011;33520;55.122;35.582;2023-06-14T12:58:09;2.92;;;1.75;;
47758;SDS011;33520;55.122;35.582;2023-06-14T13:00:38;3.47;;;2.03;;
47758;SDS011;33520;55.122;35.582;2023-06-14T13:03:05;2.63;;;1.95;;
47758;SDS011;33520;55.122;35.582;2023-06-14T13:05:32;3.47;;;2.15;;
47758;SDS011;33520;55.122;35.582;2023-06-14T13:07:59;3.85;;;2.08;;
47758;SDS011;33520;55.122;35.582;2023-06-14T13:10:26;4.05;;;2.35;;
47758;SDS011;33520;55.122;35.582;2023-06-14T13:12:54;2.80;;;1.73;;
47758;SDS011;33520;55.122;35.582;2023-06-14T13:15:20;4.28;;;2.25;;
47758;SDS011;33520;55.122;35.582;2023-06-14T13:17:47;3.50;;;1.92;;
47758;SDS011;33520;55.122;35.582;2023-06-14T13:20:14;3.88;;;1.83;;
47758;SDS011;33520;55.122;35.582;2023-06-14T13:22:42;3.92;;;2.28;;
47758;SDS011;33520;55.122;35.582;2023-06-14T13:25:08;4.10;;;2.10;;
47758;SDS011;33520;55.122;35.582;2023-06-14T13:27:35;3.20;;;1.95;;
47758;SDS011;33520;55.122;35.582;2023-06-14T13:30:02;3.58;;;2.33;;
47758;SDS011;33520;55.122;35.582;2023-06-14T13:32:31;3.15;;;1.80;;
47758;SDS011;33520;55.122;35.582;2023-06-14T13:34:57;2.72;;;1.80;;
47758;SDS011;33520;55.122;35.582;2023-06-14T13:37:23;4.05;;;1.88;;
47758;SDS011;33520;55.122;35.582;2023-06-14T13:39:50;3.67;;;2.35;;
47758;SDS011;33520;55.122;35.582;2023-06-14T13:42:16;4.93;;;2.30;;
47758;SDS011;33520;55.122;35.582;2023-06-14T13:44:43;3.17;;;1.92;;
47758;SDS011;33520;55.122;35.582;2023-06-14T13:47:09;4.40;;;2.40;;
47758;SDS011;33520;55.122;35.582;2023-06-14T13:49:36;5.07;;;2.00;;
47758;SDS011;33520;55.122;35.582;2023-06-14T13:52:02;4.32;;;1.83;;
47758;SDS011;33520;55.122;35.582;2023-06-14T13:54:29;3.58;;;2.03;;
47758;SDS011;33520;55.122;35.582;2023-06-14T13:56:55;3.95;;;2.25;;
47758;SDS011;33520;55.122;35.582;2023-06-14T13:59:21;3.03;;;1.77;;
47758;SDS011;33520;55.122;35.582;2023-06-14T14:01:49;2.75;;;1.90;;
47758;SDS011;33520;55.122;35.582;2023-06-14T14:04:15;2.67;;;1.90;;
47758;SDS011;33520;55.122;35.582;2023-06-14T14:06:42;3.28;;;2.10;;
47758;SDS011;33520;55.122;35.582;2023-06-14T14:09:08;3.38;;;2.15;;
47758;SDS011;33520;55.122;35.582;2023-06-14T14:11:35;4.70;;;2.20;;
47758;SDS011;33520;55.122;35.582;2023-06-14T14:14:01;2.88;;;1.63;;
47758;SDS011;33520;55.122;35.582;2023-06-14T14:16:28;3.53;;;2.00;;
47758;SDS011;33520;55.122;35.582;2023-06-14T14:18:56;2.88;;;1.67;;
47758;SDS011;33520;55.122;35.582;2023-06-14T14:21:22;2.63;;;1.70;;
47758;SDS011;33520;55.122;35.582;2023-06-14T14:23:48;3.15;;;1.98;;
47758;SDS011;33520;55.122;35.582;2023-06-14T14:26:15;3.90;;;2.00;;
47758;SDS011;33520;55.122;35.582;2023-06-14T14:28:42;3.75;;;2.10;;
47758;SDS011;33520;55.122;35.582;2023-06-14T14:31:08;3.45;;;1.90;;
47758;SDS011;33520;55.122;35.582;2023-06-14T14:33:35;2.38;;;1.70;;
47758;SDS011;33520;55.122;35.582;2023-06-14T14:36:01;2.67;;;1.95;;
47758;SDS011;33520;55.122;35.582;2023-06-14T14:38:29;2.83;;;1.92;;
47758;SDS011;33520;55.122;35.582;2023-06-14T14:40:55;3.30;;;2.05;;
47758;SDS011;33520;55.122;35.582;2023-06-14T14:43:22;4.47;;;2.22;;
47758;SDS011;33520;55.122;35.582;2023-06-14T14:45:49;2.42;;;1.80;;
47758;SDS011;33520;55.122;35.582;2023-06-14T14:48:15;3.45;;;1.67;;
47758;SDS011;33520;55.122;35.582;2023-06-14T14:50:41;5.18;;;2.08;;
47758;SDS011;33520;55.122;35.582;2023-06-14T14:53:08;3.38;;;2.25;;
47758;SDS011;33520;55.122;35.582;2023-06-14T14:55:34;3.38;;;1.95;;
47758;SDS011;33520;55.122;35.582;2023-06-14T14:58:03;7.32;;;1.88;;
47758;SDS011;33520;55.122;35.582;2023-06-14T15:00:29;2.65;;;1.77;;
47758;SDS011;33520;55.122;35.582;2023-06-14T15:02:56;3.63;;;2.00;;
47758;SDS011;33520;55.122;35.582;2023-06-14T15:05:22;3.42;;;2.13;;
47758;SDS011;33520;55.122;35.582;2023-06-14T15:07:48;3.47;;;1.88;;
47758;SDS011;33520;55.122;35.582;2023-06-14T15:10:15;2.78;;;1.58;;
47758;SDS011;33520;55.122;35.582;2023-06-14T15:12:41;3.28;;;2.05;;
47758;SDS011;33520;55.122;35.582;2023-06-14T15:15:08;2.65;;;1.88;;
47758;SDS011;33520;55.122;35.582;2023-06-14T15:17:35;2.45;;;1.70;;
47758;SDS011;33520;55.122;35.582;2023-06-14T15:20:01;2.38;;;1.70;;
47758;SDS011;33520;55.122;35.582;2023-06-14T15:22:27;3.30;;;2.28;;
47758;SDS011;33520;55.122;35.582;2023-06-14T15:24:54;2.75;;;1.77;;
47758;SDS011;33520;55.122;35.582;2023-06-14T15:27:20;2.58;;;1.85;;
47758;SDS011;33520;55.122;35.582;2023-06-14T15:29:46;3.40;;;2.00;;
47758;SDS011;33520;55.122;35.582;2023-06-14T15:32:13;3.05;;;1.85;;
47758;SDS011;33520;55.122;35.582;2023-06-14T15:34:39;2.75;;;1.88;;
47758;SDS011;33520;55.122;35.582;2023-06-14T15:37:06;3.08;;;2.08;;
47758;SDS011;33520;55.122;35.582;2023-06-14T15:39:32;3.10;;;1.73;;
47758;SDS011;33520;55.122;35.582;2023-06-14T15:41:59;5.15;;;2.20;;
47758;SDS011;33520;55.122;35.582;2023-06-14T15:44:25;2.40;;;1.63;;
47758;SDS011;33520;55.122;35.582;2023-06-14T15:46:52;3.47;;;1.92;;
47758;SDS011;33520;55.122;35.582;2023-06-14T15:49:18;3.35;;;1.90;;